createdAt,value
2018-01-06T00:01:47.128Z,108.93
2018-01-06T00:04:13.611Z,109.63
2018-01-06T00:06:40.092Z,109.43
2018-01-06T00:09:06.457Z,111.10
2018-01-06T00:11:32.867Z,106.83
2018-01-06T00:13:59.332Z,109.03
2018-01-06T00:16:25.696Z,105.43
2018-01-06T00:18:52.156Z,102.67
2018-01-06T00:21:18.604Z,101.97
2018-01-06T00:23:45.029Z,95.47
2018-01-06T00:26:11.419Z,88.30
2018-01-06T00:28:37.876Z,88.77
2018-01-06T00:31:04.298Z,81.33
2018-01-06T00:33:30.732Z,80.03
2018-01-06T00:35:57.176Z,76.13
2018-01-06T00:38:23.588Z,72.50
2018-01-06T00:40:49.987Z,68.83
2018-01-06T00:43:16.406Z,63.67
2018-01-06T00:45:42.869Z,62.57
2018-01-06T00:48:09.251Z,62.67
2018-01-06T00:50:35.688Z,64.10
2018-01-06T00:53:02.119Z,61.87
2018-01-06T00:55:28.489Z,59.37
2018-01-06T00:57:54.980Z,62.97
2018-01-06T01:00:21.555Z,60.20
2018-01-06T01:02:47.977Z,71.13
2018-01-06T01:05:14.444Z,73.90
2018-01-06T01:07:40.877Z,76.10
2018-01-06T01:10:07.343Z,79.40
2018-01-06T01:12:33.752Z,82.70
2018-01-06T01:15:00.102Z,80.13
2018-01-06T01:17:26.463Z,80.33
2018-01-06T01:19:52.988Z,75.93
2018-01-06T01:22:19.502Z,77.00
2018-01-06T01:24:45.920Z,76.47
2018-01-06T01:27:12.462Z,73.17
2018-01-06T01:29:38.950Z,76.17
2018-01-06T01:32:05.387Z,71.23
2018-01-06T01:34:31.923Z,63.13
2018-01-06T01:36:58.332Z,61.33
2018-01-06T01:39:24.826Z,56.93
2018-01-06T01:41:51.428Z,58.17
2018-01-06T01:44:17.945Z,58.07
2018-01-06T01:46:44.375Z,57.30
2018-01-06T01:49:10.844Z,56.93
2018-01-06T01:51:37.260Z,59.57
2018-01-06T01:54:03.672Z,58.90
2018-01-06T01:56:30.098Z,59.07
2018-01-06T01:58:56.453Z,59.43
2018-01-06T02:01:22.871Z,58.07
2018-01-06T02:03:49.352Z,60.73
2018-01-06T02:06:15.820Z,59.63
2018-01-06T02:08:42.171Z,60.23
2018-01-06T02:11:08.591Z,61.63
2018-01-06T02:13:34.980Z,57.47
2018-01-06T02:16:01.501Z,55.13
2018-01-06T02:18:27.911Z,54.10
2018-01-06T02:20:54.331Z,51.17
2018-01-06T02:23:20.720Z,48.20
2018-01-06T02:25:47.090Z,46.40
2018-01-06T02:28:13.540Z,48.40
2018-01-06T02:30:39.903Z,45.83
2018-01-06T02:33:06.379Z,47.80
2018-01-06T02:35:32.780Z,50.03
2018-01-06T02:37:59.288Z,49.50
2018-01-06T02:40:25.755Z,47.00
2018-01-06T02:42:52.119Z,44.60
2018-01-06T02:45:18.695Z,43.30
2018-01-06T02:47:45.151Z,42.20
2018-01-06T02:50:11.606Z,38.83
2018-01-06T02:52:38.037Z,41.20
2018-01-06T02:55:04.492Z,40.83
2018-01-06T02:57:30.912Z,41.67
2018-01-06T02:59:57.323Z,40.83
2018-01-06T03:02:23.756Z,42.53
2018-01-06T03:04:50.215Z,43.57
2018-01-06T03:07:16.588Z,42.50
2018-01-06T03:09:42.973Z,46.13
2018-01-06T03:12:09.361Z,47.40
2018-01-06T03:14:35.707Z,50.00
2018-01-06T03:17:02.131Z,52.97
2018-01-06T03:19:28.499Z,52.90
2018-01-06T03:21:54.963Z,50.03
2018-01-06T03:24:21.440Z,49.83
2018-01-06T03:26:47.927Z,47.07
2018-01-06T03:29:14.355Z,46.43
2018-01-06T03:31:40.818Z,46.57
2018-01-06T03:34:07.249Z,45.70
2018-01-06T03:36:33.631Z,45.13
2018-01-06T03:39:00.076Z,45.20
2018-01-06T03:41:26.438Z,45.63
2018-01-06T03:43:52.918Z,44.60
2018-01-06T03:46:19.332Z,45.03
2018-01-06T03:48:45.755Z,45.60
2018-01-06T03:51:12.207Z,44.53
2018-01-06T03:53:38.579Z,43.47
2018-01-06T03:56:04.997Z,46.17
2018-01-06T03:58:31.439Z,46.00
2018-01-06T04:00:58.008Z,43.90
2018-01-06T04:03:24.422Z,46.43
2018-01-06T04:05:50.783Z,45.63
2018-01-06T04:08:17.223Z,46.57
2018-01-06T04:10:43.614Z,47.70
2018-01-06T04:13:10.018Z,45.30
2018-01-06T04:15:36.454Z,46.60
2018-01-06T04:18:02.884Z,47.13
2018-01-06T04:20:29.282Z,48.67
2018-01-06T04:22:55.764Z,51.87
2018-01-06T04:25:22.134Z,50.53
2018-01-06T04:27:48.556Z,49.13
2018-01-06T04:30:15.049Z,48.53
2018-01-06T04:32:41.404Z,47.97
2018-01-06T04:35:07.828Z,50.93
2018-01-06T04:37:34.299Z,46.50
2018-01-06T04:40:00.708Z,47.17
2018-01-06T04:42:27.119Z,49.00
2018-01-06T04:44:53.595Z,46.03
2018-01-06T04:47:20.107Z,41.27
2018-01-06T04:49:46.515Z,38.90
2018-01-06T04:52:12.988Z,35.07
2018-01-06T04:54:39.396Z,33.80
2018-01-06T04:57:05.778Z,35.43
2018-01-06T04:59:32.211Z,35.10
2018-01-06T05:01:58.616Z,32.00
2018-01-06T05:04:25.088Z,30.20
2018-01-06T05:06:51.487Z,29.57
2018-01-06T05:09:17.870Z,29.60
2018-01-06T05:11:44.339Z,27.13
2018-01-06T05:14:10.760Z,27.70
2018-01-06T05:16:37.168Z,30.23
2018-01-06T05:19:03.694Z,32.13
2018-01-06T05:21:30.127Z,32.93
2018-01-06T05:23:56.467Z,31.90
2018-01-06T05:26:22.927Z,31.70
2018-01-06T05:28:49.384Z,31.30
2018-01-06T05:31:15.800Z,29.93
2018-01-06T05:33:42.204Z,30.10
2018-01-06T05:36:08.680Z,30.23
2018-01-06T05:38:35.125Z,29.67
2018-01-06T05:41:01.508Z,29.47
2018-01-06T05:43:28.000Z,32.77
2018-01-06T05:45:54.493Z,35.20
2018-01-06T05:48:20.931Z,39.73
2018-01-06T05:50:47.332Z,42.00
2018-01-06T05:53:13.705Z,43.60
2018-01-06T05:55:40.099Z,57.90
2018-01-06T05:58:06.610Z,56.30
2018-01-06T06:00:32.992Z,53.77
2018-01-06T06:02:59.425Z,54.50
2018-01-06T06:05:25.888Z,56.00
2018-01-06T06:07:52.276Z,54.87
2018-01-06T06:10:18.676Z,55.43
2018-01-06T06:12:45.147Z,57.10
2018-01-06T06:15:11.541Z,55.27
2018-01-06T06:17:37.924Z,58.87
2018-01-06T06:20:04.356Z,78.67
2018-01-06T06:22:30.800Z,56.23
2018-01-06T06:24:57.262Z,57.13
2018-01-06T06:27:23.663Z,61.77
2018-01-06T06:29:50.079Z,61.80
2018-01-06T06:32:16.460Z,62.67
2018-01-06T06:34:42.857Z,65.40
2018-01-06T06:37:09.303Z,72.43
2018-01-06T06:39:35.744Z,70.57
2018-01-06T06:42:02.204Z,72.60
2018-01-06T06:44:28.586Z,79.70
2018-01-06T06:46:54.996Z,71.20
2018-01-06T06:49:21.448Z,67.80
2018-01-06T06:51:47.843Z,65.17
2018-01-06T06:54:14.322Z,61.20
2018-01-06T06:56:40.819Z,59.63
2018-01-06T06:59:07.347Z,56.73
2018-01-06T07:01:33.839Z,61.27
2018-01-06T07:04:00.275Z,57.43
2018-01-06T07:06:26.667Z,56.47
2018-01-06T07:08:53.033Z,59.83
2018-01-06T07:11:19.483Z,53.70
2018-01-06T07:13:45.887Z,47.17
2018-01-06T07:16:12.347Z,49.97
2018-01-06T07:18:38.843Z,47.07
2018-01-06T07:21:05.292Z,42.00
2018-01-06T07:23:31.647Z,36.37
2018-01-06T07:25:58.090Z,34.30
2018-01-06T07:28:24.463Z,34.43
2018-01-06T07:30:51.021Z,31.90
2018-01-06T07:33:17.487Z,34.13
2018-01-06T07:35:43.823Z,29.00
2018-01-06T07:38:10.204Z,28.77
2018-01-06T07:40:36.624Z,30.83
2018-01-06T07:43:03.018Z,29.80
2018-01-06T07:45:29.426Z,29.83
2018-01-06T07:47:55.800Z,27.40
2018-01-06T07:50:22.216Z,27.63
2018-01-06T07:52:48.792Z,29.87
2018-01-06T07:55:15.216Z,31.47
2018-01-06T07:57:41.615Z,33.47
2018-01-06T08:00:08.012Z,35.07
2018-01-06T08:02:34.434Z,34.63
2018-01-06T08:05:00.915Z,39.63
2018-01-06T08:07:27.319Z,39.23
2018-01-06T08:09:53.812Z,39.53
2018-01-06T08:12:20.205Z,40.77
2018-01-06T08:14:46.676Z,41.27
2018-01-06T08:17:13.164Z,37.83
2018-01-06T08:19:39.652Z,38.77
2018-01-06T08:22:06.042Z,39.43
2018-01-06T08:24:32.464Z,39.63
2018-01-06T08:26:58.896Z,40.53
2018-01-06T08:29:25.344Z,44.53
2018-01-06T08:31:51.859Z,44.60
2018-01-06T08:34:18.288Z,47.50
2018-01-06T08:36:44.687Z,46.53
2018-01-06T08:39:11.189Z,47.23
2018-01-06T08:41:37.552Z,34.20
2018-01-06T08:44:03.928Z,27.23
2018-01-06T08:46:30.384Z,30.40
2018-01-06T08:48:56.813Z,29.60
2018-01-06T08:51:23.328Z,27.97
2018-01-06T08:53:49.779Z,27.43
2018-01-06T08:56:16.123Z,27.23
2018-01-06T08:58:42.557Z,27.80
2018-01-06T09:01:09.032Z,28.03
2018-01-06T09:03:35.418Z,29.27
2018-01-06T09:06:01.767Z,27.80
2018-01-06T09:08:28.164Z,26.50
2018-01-06T09:10:54.531Z,29.20
2018-01-06T09:13:20.945Z,27.57
2018-01-06T09:15:47.348Z,27.47
2018-01-06T09:18:13.747Z,26.97
2018-01-06T09:20:40.246Z,26.57
2018-01-06T09:23:06.760Z,27.33
2018-01-06T09:25:33.152Z,26.37
2018-01-06T09:27:59.504Z,27.87
2018-01-06T09:30:26.182Z,34.90
2018-01-06T09:32:52.567Z,32.17
2018-01-06T09:35:19.070Z,26.07
2018-01-06T09:37:45.476Z,23.83
2018-01-06T09:40:12.040Z,25.07
2018-01-06T09:42:38.454Z,24.00
2018-01-06T09:45:04.864Z,24.63
2018-01-06T09:47:31.212Z,34.20
2018-01-06T09:49:57.780Z,33.30
2018-01-06T09:52:24.216Z,32.20
2018-01-06T09:54:50.680Z,27.57
2018-01-06T09:57:17.107Z,28.60
2018-01-06T09:59:43.608Z,28.93
2018-01-06T10:02:09.964Z,30.27
2018-01-06T10:04:36.592Z,30.40
2018-01-06T10:07:03.060Z,30.10
2018-01-06T10:09:29.423Z,30.40
2018-01-06T10:11:55.798Z,30.97
2018-01-06T10:14:22.240Z,28.00
2018-01-06T10:16:48.659Z,26.40
2018-01-06T10:19:15.036Z,26.27
2018-01-06T10:21:41.535Z,23.93
2018-01-06T10:24:07.904Z,22.63
2018-01-06T10:26:34.374Z,22.17
2018-01-06T10:29:00.879Z,24.53
2018-01-06T10:31:27.285Z,25.60
2018-01-06T10:33:53.746Z,23.90
2018-01-06T10:36:20.188Z,25.30
2018-01-06T10:38:46.538Z,25.50
2018-01-06T10:41:12.973Z,24.90
2018-01-06T10:43:39.376Z,23.27
2018-01-06T10:46:05.723Z,23.43
2018-01-06T10:48:32.172Z,25.80
2018-01-06T10:50:58.587Z,26.43
2018-01-06T10:53:25.011Z,26.03
2018-01-06T10:55:51.464Z,24.10
2018-01-06T10:58:17.836Z,24.77
2018-01-06T11:00:50.388Z,26.23
2018-01-06T11:03:16.743Z,29.00
2018-01-06T11:05:43.248Z,30.63
2018-01-06T11:08:09.648Z,26.77
2018-01-06T11:10:36.182Z,28.47
2018-01-06T11:13:02.730Z,25.27
2018-01-06T11:15:29.140Z,26.10
2018-01-06T11:17:55.532Z,21.63
2018-01-06T11:20:22.057Z,21.53
2018-01-06T11:22:48.433Z,19.57
2018-01-06T11:25:14.808Z,16.93
2018-01-06T11:27:41.189Z,16.30
2018-01-06T11:30:07.596Z,17.37
2018-01-06T11:32:33.972Z,17.63
2018-01-06T11:35:00.460Z,16.73
2018-01-06T11:37:26.852Z,14.30
2018-01-06T11:39:53.232Z,14.13
2018-01-06T11:42:19.688Z,15.30
2018-01-06T11:44:46.122Z,16.40
2018-01-06T11:47:12.742Z,15.43
2018-01-06T11:49:39.108Z,14.77
2018-01-06T11:52:05.604Z,15.60
2018-01-06T11:54:31.987Z,17.33
2018-01-06T11:56:58.440Z,18.03
2018-01-06T11:59:24.803Z,19.53
2018-01-06T12:01:51.188Z,20.03
2018-01-06T12:04:17.627Z,17.10
2018-01-06T12:06:44.001Z,16.63
2018-01-06T12:09:10.417Z,16.43
2018-01-06T12:11:36.872Z,17.13
2018-01-06T12:14:03.249Z,16.37
2018-01-06T12:16:29.639Z,16.03
2018-01-06T12:18:56.147Z,17.67
2018-01-06T12:21:22.532Z,18.03
2018-01-06T12:23:48.904Z,18.33
2018-01-06T12:26:15.338Z,14.43
2018-01-06T12:28:41.724Z,17.47
2018-01-06T12:31:08.192Z,15.43
2018-01-06T12:33:34.609Z,16.43
2018-01-06T12:36:00.984Z,14.90
2018-01-06T12:38:27.433Z,15.87
2018-01-06T12:40:53.912Z,15.70
2018-01-06T12:43:20.311Z,15.10
2018-01-06T12:45:46.731Z,14.60
2018-01-06T12:48:13.186Z,14.10
2018-01-06T12:50:39.588Z,14.50
2018-01-06T12:53:05.987Z,15.27
2018-01-06T12:55:32.435Z,13.63
2018-01-06T12:57:58.819Z,16.23
2018-01-06T13:00:25.232Z,16.10
2018-01-06T13:02:51.733Z,16.03
2018-01-06T13:05:18.104Z,14.70
2018-01-06T13:07:44.508Z,14.80
2018-01-06T13:10:11.084Z,15.90
2018-01-06T13:12:37.455Z,14.93
2018-01-06T13:15:03.818Z,15.33
2018-01-06T13:17:30.339Z,15.40
2018-01-06T13:19:57.076Z,15.30
2018-01-06T13:22:23.560Z,16.20
2018-01-06T13:24:49.980Z,16.40
2018-01-06T13:27:16.356Z,19.43
2018-01-06T13:29:42.755Z,17.73
2018-01-06T13:32:09.314Z,17.23
2018-01-06T13:34:35.819Z,19.70
2018-01-06T13:37:02.209Z,17.10
2018-01-06T13:39:28.615Z,15.67
2018-01-06T13:41:55.033Z,16.53
2018-01-06T13:44:21.447Z,16.97
2018-01-06T13:46:47.907Z,15.67
2018-01-06T13:49:14.284Z,15.60
2018-01-06T13:51:40.760Z,16.23
2018-01-06T13:54:07.200Z,17.33
2018-01-06T13:56:33.553Z,16.20
2018-01-06T13:58:59.954Z,15.47
2018-01-06T14:01:26.392Z,15.60
2018-01-06T14:03:52.888Z,17.60
2018-01-06T14:06:19.263Z,16.07
2018-01-06T14:08:45.716Z,15.90
2018-01-06T14:11:12.227Z,18.20
2018-01-06T14:13:38.623Z,19.13
2018-01-06T14:16:05.043Z,17.57
2018-01-06T14:18:31.448Z,20.33
2018-01-06T14:20:57.839Z,21.07
2018-01-06T14:23:24.263Z,21.07
2018-01-06T14:25:50.639Z,20.60
2018-01-06T14:28:17.071Z,18.67
2018-01-06T14:30:43.549Z,20.90
2018-01-06T14:33:10.048Z,21.17
2018-01-06T14:35:36.487Z,24.40
2018-01-06T14:38:02.899Z,27.03
2018-01-06T14:40:29.336Z,31.60
2018-01-06T14:42:55.789Z,29.43
2018-01-06T14:45:22.264Z,27.73
2018-01-06T14:47:48.647Z,31.83
2018-01-06T14:50:15.088Z,30.73
2018-01-06T14:52:41.836Z,24.77
2018-01-06T14:55:08.699Z,23.50
2018-01-06T14:57:35.072Z,25.63
2018-01-06T15:00:01.563Z,25.90
2018-01-06T15:02:27.971Z,25.00
2018-01-06T15:04:54.476Z,25.90
2018-01-06T15:07:20.972Z,24.13
2018-01-06T15:09:47.442Z,26.03
2018-01-06T15:12:13.813Z,26.20
2018-01-06T15:14:40.311Z,26.07
2018-01-06T15:17:06.748Z,25.53
2018-01-06T15:19:33.126Z,24.93
2018-01-06T15:21:59.558Z,25.43
2018-01-06T15:24:25.953Z,25.17
2018-01-06T15:26:52.368Z,33.10
2018-01-06T15:29:18.908Z,33.97
2018-01-06T15:31:45.335Z,40.80
2018-01-06T15:34:11.798Z,43.13
2018-01-06T15:36:38.220Z,40.23
2018-01-06T15:39:04.621Z,40.33
2018-01-06T15:41:31.052Z,40.33
2018-01-06T15:43:57.513Z,40.93
2018-01-06T15:46:23.941Z,38.90
2018-01-06T15:48:50.525Z,38.73
2018-01-06T15:51:16.962Z,38.53
2018-01-06T15:53:43.338Z,40.50
2018-01-06T15:56:09.707Z,41.83
2018-01-06T15:58:36.179Z,43.67
2018-01-06T16:01:02.611Z,46.53
2018-01-06T16:03:29.028Z,54.33
2018-01-06T16:05:55.641Z,66.60
2018-01-06T16:08:22.060Z,67.63
2018-01-06T16:10:48.467Z,76.97
2018-01-06T16:13:14.862Z,73.50
2018-01-06T16:15:41.290Z,77.20
2018-01-06T16:18:07.709Z,83.37
2018-01-06T16:20:36.212Z,91.40
2018-01-06T16:23:02.596Z,95.03
2018-01-06T16:25:28.979Z,100.70
2018-01-06T16:27:55.540Z,110.83
2018-01-06T16:30:21.943Z,122.60
2018-01-06T16:32:48.400Z,164.97
2018-01-06T16:35:14.888Z,173.37
2018-01-06T16:37:41.252Z,174.57
2018-01-06T16:40:07.757Z,160.03
2018-01-06T16:42:34.283Z,152.53
2018-01-06T16:45:00.623Z,148.90
2018-01-06T16:47:27.207Z,143.60
2018-01-06T16:49:55.796Z,145.27
2018-01-06T16:52:22.244Z,145.07
2018-01-06T16:54:48.784Z,139.47
2018-01-06T16:57:15.188Z,135.10
2018-01-06T16:59:41.680Z,128.40
2018-01-06T17:02:08.080Z,120.13
2018-01-06T17:04:34.540Z,115.80
2018-01-06T17:07:01.207Z,106.70
2018-01-06T17:09:27.599Z,104.20
2018-01-06T17:11:54.032Z,98.27
2018-01-06T17:14:20.424Z,96.60
2018-01-06T17:16:46.833Z,96.77
2018-01-06T17:19:13.248Z,101.20
2018-01-06T17:21:39.743Z,105.03
2018-01-06T17:24:06.171Z,110.83
2018-01-06T17:26:32.656Z,103.87
2018-01-06T17:28:59.056Z,102.97
2018-01-06T17:31:25.413Z,104.10
2018-01-06T17:33:51.843Z,100.93
2018-01-06T17:36:18.489Z,104.07
2018-01-06T17:38:44.879Z,98.80
2018-01-06T17:41:11.273Z,99.20
2018-01-06T17:43:37.709Z,100.60
2018-01-06T17:46:04.097Z,101.17
2018-01-06T17:48:30.552Z,100.87
2018-01-06T17:50:57.332Z,98.70
2018-01-06T17:53:23.832Z,93.97
2018-01-06T17:55:50.208Z,88.60
2018-01-06T17:58:16.636Z,83.73
2018-01-06T18:00:43.067Z,80.13
2018-01-06T18:03:09.516Z,79.83
2018-01-06T18:05:35.981Z,81.50
2018-01-06T18:08:02.388Z,81.77
2018-01-06T18:10:28.912Z,82.30
2018-01-06T18:12:55.319Z,81.33
2018-01-06T18:15:21.732Z,79.03
2018-01-06T18:17:48.132Z,77.13
2018-01-06T18:20:14.599Z,74.73
2018-01-06T18:22:40.997Z,68.43
2018-01-06T18:25:07.547Z,62.00
2018-01-06T18:27:33.972Z,64.50
2018-01-06T18:30:00.396Z,63.67
2018-01-06T18:32:26.821Z,64.67
2018-01-06T18:34:53.256Z,65.70
2018-01-06T18:37:20.784Z,64.90
2018-01-06T18:39:47.227Z,64.53
2018-01-06T18:42:13.664Z,67.60
2018-01-06T18:44:40.144Z,68.20
2018-01-06T18:47:06.583Z,66.37
2018-01-06T18:49:32.976Z,70.00
2018-01-06T18:51:59.385Z,72.93
2018-01-06T18:54:25.839Z,74.00
2018-01-06T18:56:52.289Z,73.07
2018-01-06T18:59:18.716Z,71.70
2018-01-06T19:01:45.184Z,71.67
2018-01-06T19:04:11.632Z,70.43
2018-01-06T19:06:38.024Z,67.80
2018-01-06T19:09:04.476Z,67.27
2018-01-06T19:11:30.815Z,67.90
2018-01-06T19:13:57.236Z,64.87
2018-01-06T19:16:23.760Z,65.03
2018-01-06T19:18:50.221Z,68.73
2018-01-06T19:21:16.656Z,67.70
2018-01-06T19:23:43.032Z,70.77
2018-01-06T19:26:09.424Z,72.73
2018-01-06T19:28:35.911Z,75.40
2018-01-06T19:31:02.362Z,76.43
2018-01-06T19:33:28.820Z,71.00
2018-01-06T19:35:55.176Z,70.23
2018-01-06T19:38:21.583Z,71.13
2018-01-06T19:40:47.995Z,71.97
2018-01-06T19:43:14.371Z,68.33
2018-01-06T19:45:40.803Z,71.47
2018-01-06T19:48:07.187Z,72.27
2018-01-06T19:50:33.570Z,75.73
2018-01-06T19:52:59.977Z,74.17
2018-01-06T19:55:26.472Z,75.97
2018-01-06T19:57:52.845Z,73.23
2018-01-06T20:00:19.280Z,71.90
2018-01-06T20:02:45.662Z,70.70
2018-01-06T20:05:12.146Z,71.67
2018-01-06T20:07:38.639Z,67.93
2018-01-06T20:10:05.002Z,68.73
2018-01-06T20:12:31.372Z,63.43
2018-01-06T20:14:57.799Z,60.97
2018-01-06T20:17:24.168Z,60.17
2018-01-06T20:19:50.665Z,58.40
2018-01-06T20:22:17.116Z,54.87
2018-01-06T20:24:43.464Z,54.00
2018-01-06T20:27:09.923Z,52.40
2018-01-06T20:29:36.398Z,49.90
2018-01-06T20:32:02.804Z,54.03
2018-01-06T20:34:29.228Z,55.77
2018-01-06T20:36:55.734Z,56.50
2018-01-06T20:39:22.252Z,57.97
2018-01-06T20:41:48.684Z,58.53
2018-01-06T20:44:15.063Z,61.53
2018-01-06T20:46:41.507Z,59.30
2018-01-06T20:49:07.904Z,59.80
2018-01-06T20:51:34.360Z,59.50
2018-01-06T20:54:00.748Z,59.73
2018-01-06T20:56:27.160Z,58.23
2018-01-06T20:58:53.636Z,58.33
2018-01-06T21:01:19.979Z,60.77
2018-01-06T21:03:46.339Z,62.03
2018-01-06T21:06:12.827Z,61.33
2018-01-06T21:08:39.272Z,61.47
2018-01-06T21:11:05.663Z,60.80
2018-01-06T21:13:32.040Z,63.70
2018-01-06T21:15:58.536Z,63.47
2018-01-06T21:18:24.961Z,63.27
2018-01-06T21:20:51.451Z,62.20
2018-01-06T21:23:17.879Z,58.63
2018-01-06T21:25:44.321Z,59.83
2018-01-06T21:28:10.772Z,57.63
2018-01-06T21:30:37.251Z,56.70
2018-01-06T21:33:03.724Z,54.50
2018-01-06T21:35:30.467Z,53.30
2018-01-06T21:37:59.552Z,47.77
2018-01-06T21:40:25.914Z,47.17
2018-01-06T21:42:52.399Z,48.27
2018-01-06T21:45:18.819Z,49.80
2018-01-06T21:47:45.212Z,49.07
2018-01-06T21:50:11.647Z,46.73
2018-01-06T21:52:38.020Z,48.27
2018-01-06T21:55:04.464Z,44.40
2018-01-06T21:57:31.038Z,45.77
2018-01-06T21:59:58.612Z,46.07
2018-01-06T22:02:24.992Z,47.87
2018-01-06T22:04:51.448Z,49.10
2018-01-06T22:07:17.913Z,46.33
2018-01-06T22:09:44.325Z,45.40
2018-01-06T22:12:10.771Z,45.73
2018-01-06T22:14:37.143Z,45.77
2018-01-06T22:17:03.492Z,46.10
2018-01-06T22:19:30.025Z,46.23
2018-01-06T22:21:57.275Z,46.03
2018-01-06T22:24:23.732Z,48.80
2018-01-06T22:26:50.139Z,48.87
2018-01-06T22:29:16.495Z,49.27
2018-01-06T22:31:42.927Z,48.50
2018-01-06T22:34:09.413Z,50.23
2018-01-06T22:36:35.779Z,50.67
2018-01-06T22:39:02.231Z,47.80
2018-01-06T22:41:28.744Z,47.43
2018-01-06T22:43:55.119Z,45.20
2018-01-06T22:46:21.475Z,43.53
2018-01-06T22:48:47.924Z,42.27
2018-01-06T22:51:14.318Z,41.50
2018-01-06T22:53:40.696Z,40.33
2018-01-06T22:56:07.124Z,44.93
2018-01-06T22:58:33.547Z,41.67
2018-01-06T23:00:59.888Z,42.27
2018-01-06T23:03:26.315Z,40.17
2018-01-06T23:05:52.735Z,39.90
2018-01-06T23:08:19.146Z,37.73
2018-01-06T23:10:45.602Z,37.93
2018-01-06T23:13:12.015Z,38.73
2018-01-06T23:15:38.442Z,39.33
2018-01-06T23:18:04.859Z,37.73
2018-01-06T23:20:31.309Z,38.63
2018-01-06T23:22:57.751Z,38.20
2018-01-06T23:25:24.155Z,37.20
2018-01-06T23:27:50.571Z,36.37
2018-01-06T23:30:16.951Z,37.93
2018-01-06T23:32:43.431Z,37.80
2018-01-06T23:35:09.843Z,37.30
2018-01-06T23:37:36.300Z,36.13
2018-01-06T23:40:02.732Z,37.33
2018-01-06T23:42:29.142Z,38.20
2018-01-06T23:44:55.565Z,37.10
2018-01-06T23:47:21.967Z,37.97
2018-01-06T23:49:48.388Z,36.37
2018-01-06T23:52:14.815Z,37.47
2018-01-06T23:54:41.215Z,37.40
2018-01-06T23:57:07.631Z,38.93
2018-01-06T23:59:34.064Z,38.03
